W4SNA-2 Weather Reports


Display with metric or nautical units.
time (UTC)temp
F
wind
direction
speed
MPH
gust
MPH
rain 1hr
in
rain 24hr
in
rain mn
in
humidity
%
barometer
mb
20200226131205 51 0 0.0 1.0 0.00 0.00 0.00 85 1010.7
20200226130648 50 0 0.0 0.0 0.00 0.00 0.00 86 1010.4
20200226130152 50 0 0.0 0.0 0.00 0.00 0.00 86 1010.4
20200226125648 50 0 0.0 1.0 0.00 0.00 0.00 86 1010.4
20200226125154 50 0 0.0 1.0 0.00 0.00 0.00 86 1010.4
20200226124335 50 0 0.0 9.0 0.00 0.00 0.00 86 1010.4
20200226123849 50 0 0.0 9.0 0.00 0.00 0.00 86 1010.4
20200226123335 50 0 0.0 6.0 0.00 0.00 0.00 86 1010.4
20200226122838 50 0 0.0 4.0 0.00 0.00 0.00 86 1010.4
20200226122335 50 0 0.0 10.0 0.00 0.00 0.00 87 1010.3
20200226121835 50 0 0.0 10.0 0.00 0.00 0.00 88 1010.3
20200226121338 49 0 0.0 6.0 0.00 0.00 0.00 88 1010.3
20200226120854 49 0 0.0 3.0 0.00 0.00 0.00 88 1010.3
20200226120335 49 0 0.0 4.0 0.00 0.00 0.00 89 1010.3
20200226115841 49 0 0.0 8.0 0.00 0.00 0.00 89 1010.3
20200226115337 49 0 0.0 11.0 0.00 0.00 0.00 89 1010.1
20200226114838 49 330 3.0 11.0 0.00 0.00 0.00 89 1010.1
20200226114339 49 338 2.0 9.0 0.00 0.00 0.00 89 1010.1
20200226113836 49 0 0.0 6.0 0.00 0.00 0.00 89 1010.1
20200226113339 49 336 1.0 6.0 0.00 0.00 0.00 89 1010.1
20200226112840 49 0 0.0 1.0 0.00 0.00 0.00 89 1010.1
20200226112335 49 0 0.0 9.0 0.00 0.00 0.00 89 1009.9
20200226111838 49 0 0.0 9.0 0.00 0.00 0.00 89 1009.9
20200226111337 49 0 0.0 7.0 0.00 0.00 0.00 90 1009.9
20200226110835 49 0 0.0 6.0 0.00 0.00 0.00 90 1009.8
20200226110341 49 0 0.0 4.0 0.00 0.00 0.00 90 1009.8
20200226105839 49 0 0.0 4.0 0.00 0.00 0.00 90 1009.8
20200226105335 49 0 0.0 8.0 0.00 0.00 0.00 90 1009.7
20200226104839 49 0 0.0 8.0 0.00 0.00 0.00 90 1009.7
20200226104336 49 0 0.0 5.0 0.00 0.00 0.00 90 1009.7
20200226103838 50 0 0.0 7.0 0.00 0.00 0.00 90 1009.6
20200226103335 49 341 1.0 7.0 0.00 0.00 0.00 90 1009.6
20200226102613 50 0 0.0 6.0 0.00 0.00 0.00 90 1009.6
20200226102113 50 0 0.0 6.0 0.00 0.00 0.00 90 1009.6
20200226101613 50 0 0.0 7.0 0.00 0.00 0.00 89 1009.6
20200226101113 50 0 0.0 7.0 0.00 0.00 0.00 89 1009.6
20200226100619 50 0 0.0 0.0 0.00 0.00 0.00 88 1009.5
20200226100113 50 0 0.0 0.0 0.00 0.00 0.00 88 1009.5
20200226095212 51 0 0.0 3.0 0.00 0.00 0.00 87 1009.3
20200226094710 51 0 0.0 0.0 0.00 0.00 0.00 87 1009.3
20200226094216 51 0 0.0 0.0 0.00 0.00 0.00 87 1009.3
20200226093711 51 0 0.0 0.0 0.00 0.00 0.00 87 1009.3
20200226093211 51 0 0.0 0.0 0.00 0.00 0.00 87 1009.3
20200226092710 51 0 0.0 1.0 0.00 0.00 0.00 88 1009.3
20200226092215 50 0 0.0 1.0 0.00 0.00 0.00 88 1009.4
20200226091710 50 0 0.0 1.0 0.00 0.00 0.00 88 1009.4
20200226090545 50 0 0.0 11.0 0.00 0.00 0.00 89 1009.4
20200226090047 51 0 0.0 5.0 0.00 0.00 0.00 89 1009.4
20200226085553 51 0 0.0 4.0 0.00 0.00 0.00 89 1009.4
20200226085052 51 0 0.0 6.0 0.00 0.00 0.00 89 1009.4
20200226084555 51 0 0.0 6.0 0.00 0.00 0.00 89 1009.4
20200226084048 51 0 0.0 8.0 0.00 0.00 0.00 89 1009.3
20200226083543 51 0 0.0 8.0 0.00 0.00 0.00 90 1009.3
20200226083046 51 0 0.0 5.0 0.00 0.00 0.00 90 1009.3
20200226082537 51 300 2.0 11.0 0.00 0.01 0.00 91 1009.4
20200226082020 51 308 1.0 9.0 0.00 0.01 0.00 92 1009.4
20200226081520 51 0 0.0 10.0 0.00 0.01 0.00 91 1009.4
20200226081020 51 0 0.0 10.0 0.00 0.02 0.00 91 1009.5
20200226080520 51 0 0.0 4.0 0.00 0.03 0.00 91 1009.5
20200226080020 51 0 0.0 6.0 0.00 0.03 0.00 90 1009.5
20200226075520 52 0 0.0 7.0 0.00 0.04 0.00 90 1009.4
20200226075020 52 0 0.0 7.0 0.00 0.04 0.00 90 1009.4
20200226074521 52 0 0.0 5.0 0.00 0.04 0.00 90 1009.4
20200226074020 52 0 0.0 3.0 0.00 0.05 0.00 89 1009.6
20200226073520 52 0 0.0 2.0 0.00 0.05 0.00 87 1009.6
20200226073020 52 0 0.0 1.0 0.00 0.06 0.00 87 1009.6
20200226072523 52 0 0.0 1.0 0.00 0.06 0.00 86 1009.4
20200226072022 52 0 0.0 0.0 0.00 0.06 0.00 86 1009.4
20200226071520 52 0 0.0 8.0 0.00 0.06 0.00 87 1009.4
20200226071020 52 0 0.0 8.0 0.00 0.06 0.00 87 1009.9
20200226070524 53 0 0.0 0.0 0.00 0.06 0.00 87 1009.9
20200226065751 52 0 0.0 0.0 0.00 0.06 0.00 88 1009.9
20200226065245 52 0 0.0 1.0 0.00 0.06 0.00 88 1008.9
20200226064757 52 0 0.0 1.0 0.00 0.07 0.00 89 1008.9
20200226064245 52 0 0.0 0.0 0.00 0.07 0.00 91 1008.9
20200226063750 52 0 0.0 0.0 0.00 0.08 0.00 91 1008.9
20200226062923 52 0 0.0 4.0 0.00 0.09 0.00 91 1008.9
20200226062420 52 0 0.0 4.0 0.00 0.10 0.00 91 1009.0
20200226061920 52 0 0.0 2.0 0.00 0.10 0.00 91 1009.0
20200226061420 52 0 0.0 0.0 0.00 0.11 0.00 91 1009.0
20200226060638 53 0 0.0 4.0 0.00 0.11 0.00 91 1009.0
20200226060138 53 0 0.0 1.0 0.00 0.12 0.00 91 1009.0
20200226055642 53 0 0.0 1.0 0.00 0.12 0.00 91 1009.0
20200226055138 53 0 0.0 1.0 0.00 0.12 0.00 90 1009.1
20200226054214 53 0 0.0 3.0 0.00 0.13 0.00 90 1009.1
20200226053709 53 0 0.0 1.0 0.00 0.14 0.00 90 1009.1
20200226053212 53 0 0.0 1.0 0.00 0.16 0.00 90 1009.1
20200226052709 53 0 0.0 1.0 0.00 0.17 0.00 91 1009.1
20200226051820 53 0 0.0 9.0 0.00 0.18 0.00 91 1009.1
20200226051320 53 0 0.0 9.0 0.00 0.18 0.00 91 1009.1
20200226050820 53 0 0.0 9.0 0.00 0.19 0.00 92 1009.1
20200226050320 53 0 0.0 11.0 0.00 0.19 0.00 92 1009.1
20200226045820 53 248 2.0 11.0 0.00 0.20 0.00 93 1009.1
20200226045328 52 0 0.0 8.0 0.00 0.20 0.00 93 1009.2
20200226044820 52 265 1.0 8.0 0.00 0.20 0.00 92 1009.2
20200226044309 52 256 2.0 11.0 0.00 0.20 0.00 93 1009.2
20200226043812 52 0 0.0 9.0 0.00 0.20 0.00 93 1009.3
20200226043309 52 0 0.0 9.0 0.00 0.20 0.00 93 1009.3
20200226042809 52 0 0.0 10.0 0.00 0.20 0.00 93 1009.3
20200226042309 52 270 1.0 10.0 0.00 0.20 0.00 93 1009.4
20200226041809 52 0 0.0 9.0 0.00 0.20 0.00 93 1009.4
20200226041309 52 0 0.0 11.0 0.00 0.20 0.00 93 1009.4
20200226040809 51 292 2.0 11.0 0.00 0.20 0.00 93 1009.3
20200226040309 51 293 2.0 10.0 0.00 0.20 0.00 93 1009.3
20200226035706 51 0 0.0 8.0 0.00 0.20 0.00 93 1009.3
20200226035201 51 0 0.0 10.0 0.00 0.20 0.00 94 1009.4
20200226034702 51 0 0.0 10.0 0.00 0.20 0.00 94 1009.4
20200226034201 51 0 0.0 7.0 0.00 0.20 0.00 94 1009.4
20200226033702 51 0 0.0 11.0 0.00 0.20 0.00 94 1009.7
20200226033201 51 0 0.0 11.0 0.00 0.20 0.00 94 1009.7
20200226032706 51 281 1.0 5.0 0.00 0.20 0.00 94 1009.7
20200226032201 51 0 0.0 5.0 0.00 0.20 0.00 94 1009.5
20200226031303 51 301 2.0 9.0 0.00 0.20 0.00 94 1009.5
20200226030803 51 0 0.0 7.0 0.00 0.20 0.00 94 1009.7
20200226030303 51 0 0.0 7.0 0.00 0.20 0.00 94 1009.7
20200226025803 51 0 0.0 12.0 0.00 0.20 0.00 94 1009.7
20200226025303 51 296 2.0 12.0 0.00 0.20 0.00 94 1009.5
20200226024803 51 296 1.0 11.0 0.00 0.20 0.00 94 1009.5
20200226024303 51 311 2.0 11.0 0.00 0.20 0.00 94 1009.5
20200226023803 51 0 0.0 11.0 0.00 0.20 0.00 94 1009.6
20200226023303 51 300 2.0 11.0 0.00 0.20 0.00 94 1009.6
20200226022803 51 300 1.0 13.0 0.00 0.20 0.00 94 1009.6
20200226022303 51 298 1.0 13.0 0.00 0.20 0.00 94 1009.9
20200226021808 51 0 0.0 11.0 0.00 0.20 0.00 93 1009.9
20200226021303 51 300 1.0 10.0 0.00 0.20 0.00 93 1009.9
20200226020129 52 0 0.0 13.0 0.00 0.21 0.00 93 1009.5
20200226015615 52 0 0.0 13.0 0.00 0.21 0.00 93 1009.5
20200226014835 52 275 1.0 15.0 0.00 0.21 0.00 93 1009.5
20200226014334 52 271 3.0 15.0 0.00 0.21 0.00 93 1009.5
20200226013834 52 271 4.0 13.0 0.00 0.22 0.00 93 1009.4
20200226013248 52 262 2.0 14.0 0.00 0.22 0.00 93 1009.4
20200226012750 52 0 0.0 14.0 0.00 0.22 0.00 93 1009.4
20200226012252 52 265 2.0 17.0 0.00 0.22 0.00 93 1009.4
20200226011750 52 264 3.0 17.0 0.00 0.22 0.00 93 1009.4
20200226011249 52 264 5.0 16.0 0.00 0.22 0.00 93 1009.4
20200226010748 52 265 1.0 15.0 0.00 0.23 0.00 93 1009.3
20200226010250 52 0 0.0 16.0 0.00 0.23 0.00 94 1009.3
20200226005748 52 259 2.0 16.0 0.00 0.24 0.00 94 1009.3
20200226005248 52 258 4.0 17.0 0.00 0.24 0.00 94 1009.0
20200226004748 52 254 3.0 17.0 0.00 0.24 0.00 94 1009.0
20200226004248 51 247 3.0 13.0 0.00 0.24 0.00 94 1009.0
20200226003645 51 282 1.0 14.0 0.00 0.24 0.00 95 1008.9
20200226003144 51 233 2.0 14.0 0.00 0.25 0.00 95 1008.9
20200226002644 51 0 0.0 6.0 0.00 0.25 0.00 95 1008.9
20200226002144 51 0 0.0 9.0 0.00 0.25 0.00 95 1008.8
20200226001644 51 253 2.0 9.0 0.00 0.25 0.00 95 1008.8
20200226001147 51 237 1.0 10.0 0.00 0.26 0.00 95 1008.8
20200226000644 51 0 0.0 10.0 0.00 0.26 0.00 95 1008.9
20200226000145 51 0 0.0 10.0 0.00 0.26 0.00 95 1008.9
20200225235644 51 250 2.0 9.0 0.00 0.26 0.00 95 1008.9
20200225235143 51 263 1.0 8.0 0.00 0.26 0.00 95 1008.8
20200225234646 51 0 0.0 10.0 0.00 0.26 0.00 95 1008.8
20200225234150 51 241 1.0 11.0 0.00 0.27 0.00 96 1008.8
20200225233643 51 256 3.0 11.0 0.00 0.27 0.00 96 1008.5
20200225232917 51 246 1.0 8.0 0.00 0.28 0.00 96 1008.5
20200225232413 51 0 0.0 5.0 0.00 0.28 0.00 96 1008.5
20200225231915 51 0 0.0 7.0 0.00 0.28 0.00 96 1008.5
20200225231412 51 0 0.0 7.0 0.00 0.28 0.00 96 1008.5
20200225230914 51 0 0.0 10.0 0.00 0.28 0.00 96 1008.4
20200225230409 51 0 0.0 10.0 0.00 0.28 0.00 96 1008.4
20200225225601 51 220 1.0 7.0 0.00 0.29 0.30 97 1007.9
20200225225102 51 0 0.0 5.0 0.00 0.29 0.30 97 1007.9
20200225224430 51 0 0.0 5.0 0.00 0.29 0.30 97 1007.9
20200225223933 51 0 0.0 4.0 0.00 0.29 0.30 97 1007.9
20200225223430 51 0 0.0 4.0 0.00 0.30 0.30 97 1007.9
20200225222930 51 0 0.0 4.0 0.00 0.30 0.30 97 1007.9
20200225222429 51 0 0.0 2.0 0.00 0.30 0.30 97 1007.8
20200225221930 51 0 0.0 5.0 0.00 0.30 0.30 97 1007.8
20200225221431 51 0 0.0 5.0 0.00 0.30 0.30 97 1007.8
20200225220929 51 0 0.0 5.0 0.00 0.30 0.30 96 1007.5
20200225220429 51 0 0.0 6.0 0.00 0.31 0.30 96 1007.5
20200225215929 51 189 2.0 6.0 0.00 0.31 0.30 96 1007.5
20200225215159 51 0 0.0 5.0 0.00 0.32 0.30 96 1007.5
20200225214706 51 0 0.0 5.0 0.00 0.32 0.30 96 1007.5
20200225214159 51 0 0.0 7.0 0.00 0.32 0.30 96 1007.5
20200225213659 51 0 0.0 7.0 0.00 0.32 0.30 96 1007.5
20200225213208 51 0 0.0 6.0 0.00 0.32 0.30 96 1007.5
20200225212704 51 0 0.0 6.0 0.00 0.32 0.30 96 1007.5
20200225211954 51 0 0.0 6.0 0.00 0.32 0.30 96 1007.4
20200225211357 51 0 0.0 5.0 0.00 0.32 0.30 96 1007.4
20200225210856 51 0 0.0 3.0 0.00 0.32 0.30 96 1007.5
20200225210356 51 0 0.0 2.0 0.00 0.32 0.30 97 1007.5
20200225205903 51 0 0.0 4.0 0.00 0.32 0.30 97 1007.5
20200225205356 51 0 0.0 4.0 0.00 0.32 0.30 97 1007.3
20200225204856 51 0 0.0 8.0 0.00 0.32 0.30 97 1007.3
20200225204356 51 0 0.0 8.0 0.00 0.32 0.30 97 1007.3
20200225203859 51 188 1.0 6.0 0.00 0.32 0.30 96 1007.4
20200225203212 51 0 0.0 6.0 0.00 0.32 0.30 96 1007.4
20200225202717 51 0 0.0 4.0 0.00 0.32 0.30 97 1007.4
20200225202221 51 0 0.0 5.0 0.00 0.32 0.30 97 1007.5
20200225201711 51 0 0.0 5.0 0.00 0.32 0.30 97 1007.5
20200225201211 51 0 0.0 4.0 0.00 0.32 0.30 97 1007.5
20200225200723 51 0 0.0 2.0 0.00 0.32 0.30 97 1007.4
20200225200213 51 0 0.0 4.0 0.00 0.32 0.30 97 1007.4
20200225195711 51 0 0.0 4.0 0.00 0.32 0.30 97 1007.4
20200225195213 51 0 0.0 3.0 0.00 0.32 0.30 97 1007.5
20200225194711 51 0 0.0 3.0 0.00 0.32 0.30 97 1007.5
20200225194212 52 0 0.0 4.0 0.00 0.32 0.30 98 1007.5
20200225193725 51 0 0.0 4.0 0.00 0.32 0.30 98 1007.5
20200225193213 51 0 0.0 4.0 0.00 0.32 0.30 98 1007.5
20200225192711 51 0 0.0 7.0 0.00 0.32 0.30 98 1007.5
20200225192211 51 0 0.0 7.0 0.00 0.32 0.30 98 1007.5
20200225191711 50 0 0.0 6.0 0.00 0.32 0.30 98 1007.5
20200225191211 50 0 0.0 7.0 0.00 0.32 0.30 98 1007.5
20200225190711 50 199 2.0 7.0 0.00 0.32 0.30 98 1007.5
20200225190213 50 0 0.0 5.0 0.00 0.32 0.30 98 1007.5
20200225185712 50 0 0.0 8.0 0.00 0.32 0.30 99 1007.5
20200225185213 49 0 0.0 8.0 0.00 0.32 0.30 98 1007.8
20200225184723 49 209 1.0 6.0 0.00 0.32 0.30 98 1007.8
20200225184215 49 0 0.0 8.0 0.00 0.32 0.30 98 1007.8
20200225183711 49 191 1.0 8.0 0.00 0.32 0.30 98 1007.9
20200225183218 50 0 0.0 7.0 0.00 0.32 0.30 99 1007.9
20200225182711 50 0 0.0 6.0 0.00 0.32 0.30 99 1007.9
20200225182217 49 0 0.0 10.0 0.00 0.32 0.30 98 1008.0
20200225181711 50 223 1.0 10.0 0.00 0.32 0.30 98 1008.0
20200225181211 50 203 2.0 5.0 0.00 0.32 0.30 99 1008.0
20200225180711 50 0 0.0 8.0 0.00 0.32 0.30 99 1008.1
20200225180218 49 187 1.0 8.0 0.00 0.32 0.30 99 1008.1
20200225175331 49 0 0.0 9.0 0.00 0.32 0.30 99 1008.2
20200225174843 49 217 1.0 7.0 0.00 0.32 0.30 99 1008.2
20200225174331 49 0 0.0 10.0 0.00 0.32 0.30 99 1008.2
20200225173831 49 223 1.0 10.0 0.00 0.32 0.30 99 1008.4
20200225173335 49 0 0.0 8.0 0.00 0.32 0.30 99 1008.4
20200225172835 49 0 0.0 8.0 0.00 0.32 0.30 99 1008.4
20200225172331 49 0 0.0 7.0 0.00 0.32 0.30 99 1008.6
20200225171706 49 0 0.0 10.0 0.00 0.32 0.30 99 1008.6
20200225171218 49 0 0.0 12.0 0.00 0.32 0.30 99 1008.6
20200225170709 49 0 0.0 12.0 0.00 0.32 0.30 99 1008.6
20200225170213 49 226 4.0 12.0 0.00 0.32 0.30 99 1008.6
20200225165706 49 230 2.0 7.0 0.00 0.32 0.30 99 1008.6
20200225165213 49 0 0.0 12.0 0.00 0.32 0.30 99 1008.6
20200225164706 49 210 1.0 12.0 0.00 0.32 0.30 99 1008.6
20200225164213 49 245 3.0 11.0 0.00 0.32 0.30 99 1008.6
20200225163706 49 229 4.0 13.0 0.00 0.32 0.30 99 1008.5
20200225163214 49 226 1.0 13.0 0.00 0.32 0.30 99 1008.5
20200225162708 49 221 1.0 15.0 0.00 0.32 0.30 99 1008.5
20200225162208 49 228 4.0 15.0 0.00 0.32 0.30 99 1008.3
20200225161706 49 214 1.0 9.0 0.00 0.32 0.30 99 1008.3
20200225161211 49 0 0.0 6.0 0.00 0.32 0.30 99 1008.3
20200225160706 48 0 0.0 11.0 0.00 0.32 0.30 99 1008.4
20200225160213 48 231 1.0 13.0 0.00 0.32 0.30 99 1008.4
20200225155706 48 0 0.0 13.0 0.00 0.32 0.30 99 1008.4
20200225155208 49 0 0.0 7.0 0.00 0.32 0.30 99 1008.4
20200225154706 49 0 0.0 14.0 0.00 0.32 0.30 99 1008.4
20200225154206 49 225 2.0 14.0 0.00 0.32 0.30 99 1008.4
20200225153710 49 228 2.0 14.0 0.00 0.32 0.30 99 1008.5
20200225153207 49 229 3.0 14.0 0.00 0.32 0.30 99 1008.5
20200225152706 48 242 1.0 13.0 0.00 0.32 0.30 99 1008.5
20200225152211 49 0 0.0 6.0 0.00 0.32 0.30 99 1008.7
20200225151705 48 0 0.0 7.0 0.00 0.32 0.30 99 1008.7
20200225151213 48 241 1.0 8.0 0.00 0.32 0.30 99 1008.7
20200225150705 47 244 1.0 11.0 0.00 0.32 0.30 99 1007.9
20200225150207 47 0 0.0 11.0 0.00 0.32 0.30 99 1007.9
20200225145245 46 0 0.0 18.0 0.00 0.32 0.30 99 1007.6
20200225144745 46 255 1.0 18.0 0.00 0.32 0.30 99 1007.6
20200225144245 46 255 3.0 16.0 0.00 0.32 0.30 99 1007.6
20200225143757 46 0 0.0 13.0 0.00 0.32 0.30 99 1007.6
20200225143245 46 243 2.0 13.0 0.00 0.32 0.30 99 1007.6
20200225142752 46 0 0.0 10.0 0.00 0.32 0.30 99 1007.6
20200225142247 45 0 0.0 9.0 0.00 0.32 0.30 98 1007.6
20200225141756 45 0 0.0 9.0 0.00 0.32 0.30 99 1007.6
20200225141245 45 0 0.0 9.0 0.00 0.32 0.30 98 1007.6
20200225140746 45 0 0.0 10.0 0.00 0.32 0.30 98 1007.5
20200225140245 45 0 0.0 10.0 0.00 0.32 0.30 99 1007.5
20200225135858 46 0 0.0 3.0 0.00 0.32 0.30 99 1007.5
20200225135745 46 0 0.0 3.0 0.00 0.32 0.30 99 1007.5
20200225135246 45 0 0.0 3.0 0.00 0.32 0.30 98 1007.5
20200225134745 45 0 0.0 3.0 0.00 0.32 0.30 99 1007.5
20200225134003 45 0 0.0 5.0 0.00 0.32 0.30 98 1007.5
20200225133503 45 0 0.0 5.0 0.00 0.32 0.30 98 1007.5
20200225133005 45 0 0.0 5.0 0.00 0.32 0.30 98 1007.5
20200225132503 45 0 0.0 2.0 0.00 0.32 0.30 98 1007.4
20200225131747 45 0 0.0 3.0 0.00 0.32 0.30 99 1007.4
20200225131247 44 0 0.0 3.0 0.00 0.32 0.30 99 1007.4